Tyndall Air Force Base
KPAM : now visible

Airfield :











YOU CAN JOIN US ON...

 
LOGIN :

Register | Disclaimer

   EN    FR    IT 

 









Legend :    VFR   Marginal VFR   IFR   Intensive IFR   Very Intensive IFR
Visi :
Ceiling :
>= 8 km
>= 3000ft
5 to 8 km
1000 to 3000 ft
1500m to 5 km
500 to 1000 ft
800 to 1500m
200 to 500 ft
< 800m
< 200 ft
Symbols :   Thunderstorms  Fog  Heavy snow  Heavy precipitations  Wind > 20 kt






- Airport Elevation : 17 ft


KPAM - Tyndall Air Force Base

CURRENT METAR :
  • 301656Z AUTO 21011KT 10SM CLR 31/26 A3002 RMK AO2 SLP169 T03100260

EXPIRED METARs :
  • 301556Z AUTO 22008KT 10SM FEW200 31/26 A3003 RMK AO2 SLP172 T03110259
  • 301456Z AUTO 16003KT 10SM CLR 30/25 A3003 RMK AO2 SLP172 T03040250 53010

TAF TAF KPAM
Valid from the 30 at 11:00 until the 31 at 17:00 UTC


301100Z 3011/3117 01003KT 9999 SCT035 QNH2999INS
TEMPO 3019/3022 26012G18KT 8000 -TSRA BKN020CB
BECMG 3021/3022 23012KT 8000 -SHRA SCT030 BKN050 QNH2999INS
BECMG 3100/3101 24006KT 9999 NSW SCT050 QNH3000INS TX32/3019Z TN26/3111Z
KZJX FIR / North America



MET'MAP, your aeronautical weather chart ! - Copyright ORBIFLY December 2007 - Disclaimer

ORBIFLY MET'MAP TEAM :

Programming & Development : Alexandra Zaïnal
Concept & original design : Baudouin d'Aumeries
Assistance for programming : Marc-Olivier Méhu
Technical & hardware support : Manuel Goepfert

Contact : metmap@orbifly.com




SOURCES & CREDITS :

   NOAA       Earth
Advisory